createdAt,value
2023-01-11T00:00:55.583Z,7.18
2023-01-11T00:03:22.836Z,5.20
2023-01-11T00:05:49.994Z,3.83
2023-01-11T00:08:19.145Z,3.10
2023-01-11T00:10:46.254Z,5.18
2023-01-11T00:13:14.424Z,5.45
2023-01-11T00:15:41.628Z,4.47
2023-01-11T00:18:09.684Z,4.43
2023-01-11T00:20:40.664Z,9.13
2023-01-11T00:23:08.185Z,3.30
2023-01-11T00:25:35.816Z,3.17
2023-01-11T00:28:02.950Z,4.28
2023-01-11T00:30:30.079Z,6.07
2023-01-11T00:32:58.619Z,7.55
2023-01-11T00:35:27.353Z,5.13
2023-01-11T00:37:54.534Z,4.18
2023-01-11T00:40:23.223Z,3.85
2023-01-11T00:43:08.887Z,3.88
2023-01-11T00:45:54.854Z,5.55
2023-01-11T00:48:22.132Z,3.83
2023-01-11T00:50:49.297Z,3.50
2023-01-11T00:53:18.255Z,5.78
2023-01-11T00:55:45.300Z,4.43
2023-01-11T00:58:12.355Z,3.15
2023-01-11T01:00:39.432Z,3.60
2023-01-11T01:03:06.577Z,6.97
2023-01-11T01:05:33.708Z,4.28
2023-01-11T01:08:00.759Z,2.92
2023-01-11T01:10:27.852Z,3.53
2023-01-11T01:13:13.200Z,3.75
2023-01-11T01:15:40.370Z,3.45
2023-01-11T01:18:07.532Z,4.55
2023-01-11T01:20:34.765Z,3.95
2023-01-11T01:23:01.975Z,5.55
2023-01-11T01:25:29.065Z,3.63
2023-01-11T01:27:56.132Z,11.07
2023-01-11T01:30:23.260Z,3.47
2023-01-11T01:32:50.389Z,3.55
2023-01-11T01:35:17.526Z,6.32
2023-01-11T01:37:44.890Z,3.45
2023-01-11T01:40:12.478Z,3.97
2023-01-11T01:42:39.563Z,4.20
2023-01-11T01:45:23.791Z,3.90
2023-01-11T01:47:57.832Z,3.35
2023-01-11T01:50:29.554Z,3.70
2023-01-11T01:53:01.485Z,5.53
2023-01-11T01:55:35.211Z,3.40
2023-01-11T01:58:06.234Z,2.55
2023-01-11T02:00:33.749Z,5.32
2023-01-11T02:03:02.022Z,4.32
2023-01-11T02:05:31.458Z,3.20
2023-01-11T02:08:00.832Z,6.07
2023-01-11T02:10:28.863Z,2.65
2023-01-11T02:13:00.718Z,2.70
2023-01-11T02:15:29.000Z,7.20
2023-01-11T02:17:56.138Z,4.72
2023-01-11T02:20:34.935Z,3.38
2023-01-11T02:23:16.242Z,4.18
2023-01-11T02:26:04.864Z,2.85
2023-01-11T02:29:10.286Z,3.22
2023-01-11T02:32:05.713Z,3.17
2023-01-11T02:34:59.841Z,4.03
2023-01-11T02:38:05.237Z,3.65
2023-01-11T02:40:59.674Z,3.35
2023-01-11T02:46:29.824Z,4.35
2023-01-11T02:49:20.753Z,3.15
2023-01-11T02:51:52.097Z,2.92
2023-01-11T02:54:22.693Z,4.38
2023-01-11T02:56:53.396Z,3.47
2023-01-11T02:59:23.808Z,3.00
2023-01-11T03:01:53.238Z,6.20
2023-01-11T03:04:29.795Z,3.03
2023-01-11T03:07:29.228Z,3.38
2023-01-11T03:10:50.043Z,3.75
2023-01-11T03:13:41.783Z,4.10
2023-01-11T03:16:23.320Z,2.42
2023-01-11T03:18:58.560Z,4.22
2023-01-11T03:21:48.284Z,5.38
2023-01-11T03:24:33.725Z,3.22
2023-01-11T03:27:30.934Z,3.03
2023-01-11T03:30:00.993Z,3.22
2023-01-11T03:32:33.741Z,3.13
2023-01-11T03:35:21.130Z,3.88
2023-01-11T03:38:16.259Z,3.92
2023-01-11T03:40:49.602Z,3.33
2023-01-11T03:43:19.415Z,4.30
2023-01-11T03:46:07.924Z,4.40
2023-01-11T03:48:41.771Z,5.30
2023-01-11T03:53:41.045Z,4.22
2023-01-11T03:56:11.568Z,3.33
2023-01-11T03:58:38.822Z,6.38
2023-01-11T04:01:06.513Z,3.15
2023-01-11T04:03:33.716Z,4.25
2023-01-11T04:06:01.899Z,3.17
2023-01-11T04:08:31.045Z,2.97
2023-01-11T04:10:58.284Z,2.80
2023-01-11T04:13:25.412Z,2.92
2023-01-11T04:15:54.123Z,3.25
2023-01-11T04:18:21.216Z,3.03
2023-01-11T04:20:48.288Z,2.97
2023-01-11T04:23:15.456Z,2.42
2023-01-11T04:25:42.533Z,3.83
2023-01-11T04:28:09.640Z,2.80
2023-01-11T04:30:37.211Z,1.98
2023-01-11T04:33:04.336Z,5.28
2023-01-11T04:35:31.503Z,2.50
2023-01-11T04:37:58.690Z,2.75
2023-01-11T04:40:25.798Z,2.78
2023-01-11T04:42:52.917Z,2.25
2023-01-11T04:45:20.327Z,2.63
2023-01-11T04:47:54.117Z,2.85
2023-01-11T04:52:48.149Z,3.67
2023-01-11T04:55:15.243Z,3.42
2023-01-11T04:57:44.176Z,7.35
2023-01-11T05:00:12.564Z,6.05
2023-01-11T05:02:40.433Z,5.70
2023-01-11T05:05:07.985Z,4.78
2023-01-11T05:07:35.062Z,5.22
2023-01-11T05:10:02.770Z,4.95
2023-01-11T05:12:29.854Z,4.90
2023-01-11T05:14:57.126Z,3.50
2023-01-11T05:17:24.218Z,2.45
2023-01-11T05:19:51.352Z,6.13
2023-01-11T05:22:18.426Z,3.17
2023-01-11T05:24:45.534Z,4.75
2023-01-11T05:27:12.621Z,5.05
2023-01-11T05:29:39.748Z,3.28
2023-01-11T05:32:06.966Z,6.60
2023-01-11T05:34:34.074Z,3.92
2023-01-11T05:37:01.159Z,3.42
2023-01-11T05:39:28.230Z,2.97
2023-01-11T05:41:55.285Z,3.47
2023-01-11T05:44:40.735Z,3.83
2023-01-11T05:47:07.788Z,4.25
2023-01-11T05:49:34.866Z,3.63
2023-01-11T05:52:02.097Z,3.83
2023-01-11T05:54:29.176Z,2.65
2023-01-11T05:56:57.721Z,4.63
2023-01-11T05:59:26.723Z,3.20
2023-01-11T06:01:53.942Z,3.25
2023-01-11T06:04:21.109Z,7.10
2023-01-11T06:06:48.242Z,3.60
2023-01-11T06:09:15.321Z,3.95
2023-01-11T06:11:42.466Z,5.13
2023-01-11T06:14:09.539Z,5.22
2023-01-11T06:16:36.751Z,5.32
2023-01-11T06:19:03.904Z,4.72
2023-01-11T06:21:31.130Z,2.45
2023-01-11T06:23:58.371Z,3.25
2023-01-11T06:26:25.512Z,7.28
2023-01-11T06:28:52.602Z,4.18
2023-01-11T06:31:19.835Z,7.32
2023-01-11T06:33:47.532Z,6.70
2023-01-11T06:36:16.019Z,10.18
2023-01-11T06:38:43.881Z,7.25
2023-01-11T06:41:11.966Z,6.47
2023-01-11T06:43:41.659Z,7.85
2023-01-11T06:46:16.047Z,2.70
2023-01-11T06:48:44.399Z,10.48
2023-01-11T06:51:12.753Z,6.32
2023-01-11T06:53:43.757Z,5.68
2023-01-11T06:56:13.334Z,2.95
2023-01-11T06:58:40.730Z,6.38
2023-01-11T07:01:07.982Z,3.85
2023-01-11T07:03:35.376Z,3.60
2023-01-11T07:06:02.653Z,5.75
2023-01-11T07:08:29.792Z,5.05
2023-01-11T07:10:56.971Z,4.63
2023-01-11T07:13:24.067Z,8.57
2023-01-11T07:15:53.922Z,3.58
2023-01-11T07:18:21.212Z,3.28
2023-01-11T07:20:50.157Z,3.90
2023-01-11T07:23:17.247Z,3.60
2023-01-11T07:25:44.331Z,3.58
2023-01-11T07:28:11.428Z,5.50
2023-01-11T07:30:56.206Z,4.03
2023-01-11T07:33:25.114Z,2.95
2023-01-11T07:35:52.280Z,3.92
2023-01-11T07:38:19.508Z,7.47
2023-01-11T07:40:46.742Z,5.13
2023-01-11T07:43:14.891Z,4.70
2023-01-11T07:45:49.155Z,6.00
2023-01-11T07:48:24.792Z,3.08
2023-01-11T07:50:53.026Z,5.45
2023-01-11T07:53:20.557Z,5.32
2023-01-11T07:55:47.700Z,4.95
2023-01-11T07:58:15.871Z,7.22
2023-01-11T08:00:43.397Z,7.05
2023-01-11T08:03:10.693Z,8.70
2023-01-11T08:05:38.441Z,6.28
2023-01-11T08:08:06.267Z,8.85
2023-01-11T08:10:34.229Z,6.90
2023-01-11T08:13:20.532Z,5.38
2023-01-11T08:15:47.733Z,6.28
2023-01-11T08:18:14.900Z,4.93
2023-01-11T08:20:42.031Z,7.97
2023-01-11T08:23:10.254Z,5.07
2023-01-11T08:25:37.865Z,7.82
2023-01-11T08:28:06.983Z,7.25
2023-01-11T08:30:35.303Z,7.68
2023-01-11T08:33:03.235Z,7.00
2023-01-11T08:35:31.289Z,4.70
2023-01-11T08:37:58.391Z,6.40
2023-01-11T08:40:25.671Z,6.13
2023-01-11T08:42:57.108Z,3.88
2023-01-11T08:45:25.029Z,5.40
2023-01-11T08:47:52.515Z,3.72
2023-01-11T08:50:22.318Z,5.00
2023-01-11T08:52:51.146Z,6.45
2023-01-11T08:55:19.288Z,7.63
2023-01-11T08:57:46.476Z,5.68
2023-01-11T09:00:14.429Z,4.90
2023-01-11T09:02:41.615Z,4.72
2023-01-11T09:05:09.328Z,5.43
2023-01-11T09:07:36.472Z,7.00
2023-01-11T09:10:04.424Z,3.85
2023-01-11T09:12:32.674Z,9.90
2023-01-11T09:15:00.099Z,6.32
2023-01-11T09:17:27.357Z,5.20
2023-01-11T09:19:54.467Z,4.28
2023-01-11T09:22:21.569Z,3.97
2023-01-11T09:24:48.751Z,3.90
2023-01-11T09:27:16.388Z,4.38
2023-01-11T09:29:43.709Z,6.00
2023-01-11T09:32:10.891Z,5.18
2023-01-11T09:34:39.131Z,4.55
2023-01-11T09:37:07.017Z,4.57
2023-01-11T09:39:35.136Z,5.05
2023-01-11T09:42:15.093Z,4.72
2023-01-11T09:44:49.662Z,4.35
2023-01-11T09:47:28.890Z,6.60
2023-01-11T09:50:00.618Z,4.78
2023-01-11T09:52:40.941Z,3.95
2023-01-11T09:55:24.552Z,5.53
2023-01-11T09:57:54.626Z,3.53
2023-01-11T10:01:06.873Z,3.42
2023-01-11T10:04:04.053Z,3.78
2023-01-11T10:06:48.163Z,4.28
2023-01-11T10:18:33.477Z,6.45
2023-01-11T10:18:49.444Z,5.57
2023-01-11T10:21:46.424Z,4.03
2023-01-11T10:24:23.578Z,5.53
2023-01-11T10:26:56.642Z,4.35
2023-01-11T10:30:07.008Z,4.55
2023-01-11T10:33:02.000Z,6.05
2023-01-11T10:36:29.358Z,3.75
2023-01-11T10:39:17.477Z,10.50
2023-01-11T10:42:04.915Z,4.72
2023-01-11T10:44:43.809Z,4.38
2023-01-11T10:47:20.159Z,6.18
2023-01-11T10:50:24.215Z,6.60
2023-01-11T10:53:00.030Z,6.68
2023-01-11T10:55:50.045Z,6.22
2023-01-11T10:58:39.202Z,7.65
2023-01-11T11:01:32.822Z,6.60
2023-01-11T11:04:14.915Z,10.38
2023-01-11T11:06:49.557Z,8.05
2023-01-11T11:09:44.218Z,5.63
2023-01-11T11:12:24.536Z,7.97
2023-01-11T11:15:20.506Z,3.25
2023-01-11T11:17:52.174Z,6.05
2023-01-11T11:20:24.904Z,6.97
2023-01-11T11:22:54.067Z,4.35
2023-01-11T11:25:35.491Z,9.02
2023-01-11T11:28:23.947Z,6.38
2023-01-11T11:30:57.159Z,5.93
2023-01-11T11:33:38.431Z,9.60
2023-01-11T11:36:08.830Z,7.07
2023-01-11T11:38:38.859Z,7.15
2023-01-11T11:41:13.625Z,7.50
2023-01-11T11:43:43.092Z,6.88
2023-01-11T11:46:24.091Z,6.72
2023-01-11T11:49:17.942Z,6.53
2023-01-11T11:51:47.829Z,8.45
2023-01-11T11:54:34.303Z,6.57
2023-01-11T11:57:15.407Z,6.55
2023-01-11T11:59:48.471Z,6.18
2023-01-11T12:02:27.640Z,7.95
2023-01-11T12:04:57.517Z,7.88
2023-01-11T12:07:32.127Z,7.45
2023-01-11T12:10:03.183Z,8.30
2023-01-11T12:12:32.129Z,8.13
2023-01-11T12:15:07.224Z,5.43
2023-01-11T12:17:35.173Z,9.25
2023-01-11T12:20:02.380Z,7.40
2023-01-11T12:22:29.502Z,9.60
2023-01-11T12:25:14.867Z,9.82
2023-01-11T12:27:59.714Z,8.88
2023-01-11T12:30:45.517Z,8.38
2023-01-11T12:33:37.879Z,7.97
2023-01-11T12:36:10.683Z,8.23
2023-01-11T12:39:00.896Z,9.85
2023-01-11T12:41:50.299Z,12.73
2023-01-11T12:44:26.276Z,10.38
2023-01-11T12:47:03.990Z,10.57
2023-01-11T12:50:05.341Z,10.13
2023-01-11T12:52:32.375Z,10.38
2023-01-11T12:55:06.527Z,11.75
2023-01-11T12:57:59.602Z,8.32
2023-01-11T13:00:53.569Z,8.45
2023-01-11T13:03:51.465Z,8.30
2023-01-11T13:06:49.622Z,10.70
2023-01-11T13:09:32.932Z,10.20
2023-01-11T13:12:13.217Z,8.38
2023-01-11T13:15:07.919Z,8.15
2023-01-11T13:17:53.681Z,10.93
2023-01-11T13:20:48.735Z,8.88
2023-01-11T13:23:32.965Z,10.20
2023-01-11T13:26:18.592Z,10.30
2023-01-11T13:28:50.524Z,7.43
2023-01-11T13:31:18.772Z,8.95
2023-01-11T13:33:53.738Z,6.97
2023-01-11T13:36:36.711Z,10.93
2023-01-11T13:39:32.265Z,10.85
2023-01-11T13:42:05.370Z,10.02
2023-01-11T13:44:42.500Z,8.50
2023-01-11T13:47:17.163Z,8.07
2023-01-11T13:50:03.860Z,7.50
2023-01-11T13:52:57.848Z,6.55
2023-01-11T13:55:41.933Z,7.10
2023-01-11T13:58:08.933Z,7.53
2023-01-11T14:00:41.224Z,6.63
2023-01-11T14:03:24.336Z,9.52
2023-01-11T14:06:13.172Z,6.40
2023-01-11T14:08:49.265Z,9.32
2023-01-11T14:11:34.709Z,9.85
2023-01-11T14:14:26.289Z,5.07
2023-01-11T14:17:17.952Z,5.95
2023-01-11T14:19:57.004Z,5.78
2023-01-11T14:22:38.021Z,6.25
2023-01-11T14:25:14.981Z,6.47
2023-01-11T14:28:17.688Z,10.20
2023-01-11T14:30:59.790Z,11.27
2023-01-11T14:34:05.264Z,6.55
2023-01-11T14:37:09.451Z,9.13
2023-01-11T14:39:49.839Z,8.23
2023-01-11T14:42:35.079Z,7.75
2023-01-11T14:45:13.378Z,7.00
2023-01-11T14:47:43.163Z,5.78
2023-01-11T14:50:16.097Z,6.72
2023-01-11T14:52:45.502Z,7.25
2023-01-11T14:55:23.131Z,10.60
2023-01-11T14:57:55.910Z,7.65
2023-01-11T15:00:22.943Z,8.87
2023-01-11T15:02:52.350Z,11.07
2023-01-11T15:05:47.075Z,20.45
2023-01-11T15:08:14.113Z,31.77
2023-01-11T15:11:04.120Z,24.60
2023-01-11T15:13:46.079Z,27.80
2023-01-11T15:16:49.370Z,28.13
2023-01-11T15:19:33.871Z,22.20
2023-01-11T15:22:04.464Z,21.38
2023-01-11T15:24:38.184Z,18.35
2023-01-11T15:29:41.351Z,15.55
2023-01-11T15:32:25.465Z,14.68
2023-01-11T15:37:35.555Z,12.90
2023-01-11T15:40:18.929Z,11.82
2023-01-11T15:43:04.440Z,13.27
2023-01-11T15:46:19.463Z,11.02
2023-01-11T15:48:55.500Z,10.40
2023-01-11T15:51:31.414Z,8.25
2023-01-11T15:54:01.256Z,9.40
2023-01-11T15:56:51.638Z,10.55
2023-01-11T15:59:46.528Z,12.07
2023-01-11T16:02:14.040Z,11.98
2023-01-11T16:05:11.388Z,11.30
2023-01-11T16:08:03.281Z,12.40
2023-01-11T16:10:50.187Z,13.40
2023-01-11T16:13:57.167Z,20.60
2023-01-11T16:16:31.637Z,14.93
2023-01-11T16:19:16.640Z,22.80
2023-01-11T16:21:47.559Z,31.20
2023-01-11T16:24:20.903Z,25.75
2023-01-11T16:26:55.940Z,17.27
2023-01-11T16:29:25.612Z,14.32
2023-01-11T16:32:01.887Z,12.05
2023-01-11T16:34:39.412Z,19.02
2023-01-11T16:37:21.760Z,15.27
2023-01-11T16:39:54.166Z,17.85
2023-01-11T16:42:22.003Z,15.70
2023-01-11T16:44:58.533Z,10.63
2023-01-11T16:47:25.723Z,15.80
2023-01-11T16:50:14.765Z,11.60
2023-01-11T16:52:48.797Z,17.58
2023-01-11T16:55:29.966Z,13.05
2023-01-11T16:58:00.166Z,18.23
2023-01-11T17:00:40.730Z,15.63
2023-01-11T17:03:18.690Z,14.05
2023-01-11T17:05:57.709Z,14.25
2023-01-11T17:08:26.382Z,15.05
2023-01-11T17:10:57.060Z,15.77
2023-01-11T17:13:54.472Z,15.07
2023-01-11T17:16:49.597Z,14.25
2023-01-11T17:19:21.011Z,11.70
2023-01-11T17:21:54.523Z,13.75
2023-01-11T17:24:25.079Z,16.33
2023-01-11T17:26:56.502Z,14.85
2023-01-11T17:29:30.290Z,13.27
2023-01-11T17:34:35.406Z,14.02
2023-01-11T17:37:10.234Z,14.65
2023-01-11T17:39:42.967Z,15.88
2023-01-11T17:42:32.708Z,15.63
2023-01-11T17:45:15.760Z,19.90
2023-01-11T17:47:46.443Z,15.10
2023-01-11T17:50:22.085Z,16.85
2023-01-11T17:52:57.373Z,17.92
2023-01-11T17:55:27.086Z,14.45
2023-01-11T17:58:12.813Z,21.20
2023-01-11T18:00:42.447Z,20.08
2023-01-11T18:03:18.496Z,19.08
2023-01-11T18:05:45.613Z,18.45
2023-01-11T18:08:21.051Z,18.10
2023-01-11T18:10:52.842Z,18.73
2023-01-11T18:13:34.612Z,21.27
2023-01-11T18:16:03.069Z,18.95
2023-01-11T18:18:48.125Z,25.67
2023-01-11T18:21:31.374Z,31.05
2023-01-11T18:24:14.263Z,37.63
2023-01-11T18:26:45.503Z,26.75
2023-01-11T18:29:39.620Z,31.13
2023-01-11T18:32:11.030Z,29.35
2023-01-11T18:34:38.942Z,24.35
2023-01-11T18:37:08.837Z,25.67
2023-01-11T18:39:36.088Z,32.30
2023-01-11T18:42:08.006Z,26.27
2023-01-11T18:44:39.697Z,50.47
2023-01-11T18:47:17.673Z,40.65
2023-01-11T18:49:45.571Z,29.42
2023-01-11T18:52:13.228Z,24.25
2023-01-11T18:54:41.663Z,19.83
2023-01-11T18:57:09.406Z,23.10
2023-01-11T18:59:37.674Z,35.75
2023-01-11T19:02:17.732Z,23.67
2023-01-11T19:04:45.774Z,23.75
2023-01-11T19:07:13.604Z,27.85
2023-01-11T19:09:41.021Z,24.35
2023-01-11T19:12:08.414Z,24.33
2023-01-11T19:14:35.510Z,22.95
2023-01-11T19:17:04.567Z,24.92
2023-01-11T19:19:31.679Z,23.00
2023-01-11T19:21:58.747Z,25.15
2023-01-11T19:24:25.853Z,21.25
2023-01-11T19:26:53.092Z,19.20
2023-01-11T19:29:22.717Z,19.05
2023-01-11T19:31:51.907Z,29.02
2023-01-11T19:34:19.630Z,25.80
2023-01-11T19:36:48.157Z,19.73
2023-01-11T19:39:15.369Z,25.50
2023-01-11T19:41:54.848Z,20.98
2023-01-11T19:44:24.116Z,25.90
2023-01-11T19:46:57.074Z,22.83
2023-01-11T19:49:36.734Z,23.65
2023-01-11T19:52:04.447Z,27.73
2023-01-11T19:54:31.534Z,23.67
2023-01-11T19:56:58.718Z,24.30
2023-01-11T19:59:25.838Z,20.48
2023-01-11T20:01:52.920Z,26.67
2023-01-11T20:04:21.100Z,26.73
2023-01-11T20:06:51.945Z,23.23
2023-01-11T20:09:20.695Z,22.27
2023-01-11T20:11:53.116Z,22.83
2023-01-11T20:14:20.436Z,22.95
2023-01-11T20:16:47.635Z,26.15
2023-01-11T20:19:14.892Z,23.90
2023-01-11T20:21:42.168Z,27.02
2023-01-11T20:24:13.162Z,21.20
2023-01-11T20:26:41.589Z,21.67
2023-01-11T20:29:08.829Z,19.17
2023-01-11T20:31:36.231Z,23.00
2023-01-11T20:34:08.354Z,20.55
2023-01-11T20:36:35.831Z,19.85
2023-01-11T20:39:04.221Z,18.85
2023-01-11T20:41:49.915Z,21.95
2023-01-11T20:44:28.079Z,19.60
2023-01-11T20:46:56.535Z,22.20
2023-01-11T20:49:28.889Z,21.55
2023-01-11T20:51:56.690Z,21.05
2023-01-11T20:54:23.792Z,17.52
2023-01-11T20:56:51.019Z,23.40
2023-01-11T20:59:20.007Z,26.50
2023-01-11T21:01:48.139Z,19.27
2023-01-11T21:04:16.825Z,19.25
2023-01-11T21:06:47.838Z,18.08
2023-01-11T21:09:16.845Z,24.02
2023-01-11T21:11:44.833Z,21.17
2023-01-11T21:14:12.057Z,22.02
2023-01-11T21:16:44.133Z,18.83
2023-01-11T21:19:12.836Z,15.48
2023-01-11T21:21:40.432Z,16.00
2023-01-11T21:24:08.100Z,21.45
2023-01-11T21:26:35.917Z,20.70
2023-01-11T21:29:05.194Z,18.73
2023-01-11T21:31:35.590Z,17.15
2023-01-11T21:34:03.539Z,18.58
2023-01-11T21:36:31.885Z,18.63
2023-01-11T21:39:00.166Z,17.48
2023-01-11T21:41:48.148Z,17.80
2023-01-11T21:44:16.654Z,17.45
2023-01-11T21:46:44.533Z,18.05
2023-01-11T21:49:12.571Z,18.90
2023-01-11T21:51:40.878Z,20.77
2023-01-11T21:54:10.790Z,25.13
2023-01-11T21:56:38.530Z,26.05
2023-01-11T21:59:05.865Z,23.25
2023-01-11T22:01:33.093Z,22.40
2023-01-11T22:04:04.624Z,22.60
2023-01-11T22:06:34.329Z,19.27
2023-01-11T22:09:01.458Z,23.08
2023-01-11T22:11:28.561Z,20.10
2023-01-11T22:13:55.617Z,18.83
2023-01-11T22:16:22.729Z,23.42
2023-01-11T22:18:49.828Z,21.33
2023-01-11T22:21:18.563Z,21.33
2023-01-11T22:23:47.376Z,21.30
2023-01-11T22:26:16.792Z,24.63
2023-01-11T22:29:03.914Z,24.60
2023-01-11T22:31:32.614Z,23.88
2023-01-11T22:34:00.497Z,21.33
2023-01-11T22:36:28.520Z,23.05
2023-01-11T22:38:56.188Z,29.10
2023-01-11T22:41:25.171Z,21.17
2023-01-11T22:43:53.648Z,26.85
2023-01-11T22:46:23.618Z,24.77
2023-01-11T22:48:51.851Z,22.65
2023-01-11T22:51:21.385Z,23.95
2023-01-11T22:53:50.574Z,21.27
2023-01-11T22:56:19.612Z,19.10
2023-01-11T22:58:47.563Z,27.10
2023-01-11T23:01:23.438Z,20.27
2023-01-11T23:03:52.287Z,25.10
2023-01-11T23:06:31.356Z,27.90
2023-01-11T23:08:59.379Z,20.55
2023-01-11T23:11:48.263Z,19.42
2023-01-11T23:14:19.676Z,22.17
2023-01-11T23:16:49.176Z,24.63
2023-01-11T23:19:19.502Z,24.27
2023-01-11T23:21:47.554Z,26.98
2023-01-11T23:24:16.540Z,19.80
2023-01-11T23:26:45.109Z,21.77
2023-01-11T23:29:12.880Z,19.80
2023-01-11T23:31:40.313Z,24.58
2023-01-11T23:34:08.347Z,20.98
2023-01-11T23:36:38.468Z,20.58
2023-01-11T23:39:07.949Z,20.17
2023-01-11T23:41:54.487Z,20.52
2023-01-11T23:44:22.676Z,23.55
2023-01-11T23:47:09.282Z,25.92
2023-01-11T23:49:36.477Z,22.98
2023-01-11T23:52:04.613Z,27.75
2023-01-11T23:54:33.744Z,25.25
2023-01-11T23:57:02.609Z,21.30
2023-01-11T23:59:30.319Z,22.45
